createdAt,value
2023-02-04T00:00:06.517Z,8.66
2023-02-04T00:01:06.521Z,8.59
2023-02-04T00:02:06.506Z,8.63
2023-02-04T00:03:06.542Z,8.56
2023-02-04T00:04:06.478Z,8.58
2023-02-04T00:05:06.460Z,8.73
2023-02-04T00:06:06.625Z,8.66
2023-02-04T00:07:06.442Z,8.58
2023-02-04T00:08:06.449Z,8.71
2023-02-04T00:09:06.425Z,8.68
2023-02-04T00:10:06.411Z,8.65
2023-02-04T00:11:06.404Z,8.65
2023-02-04T00:12:06.453Z,8.61
2023-02-04T00:13:06.381Z,8.55
2023-02-04T00:14:06.370Z,8.48
2023-02-04T00:15:06.394Z,8.52
2023-02-04T00:16:06.391Z,8.56
2023-02-04T00:17:06.362Z,8.48
2023-02-04T00:18:06.329Z,8.52
2023-02-04T00:19:06.321Z,8.55
2023-02-04T00:20:06.314Z,8.50
2023-02-04T00:21:06.323Z,8.50
2023-02-04T00:22:06.282Z,8.52
2023-02-04T00:23:06.282Z,8.45
2023-02-04T00:24:06.279Z,8.48
2023-02-04T00:25:06.240Z,8.48
2023-02-04T00:26:06.238Z,8.53
2023-02-04T00:27:06.217Z,8.52
2023-02-04T00:28:06.261Z,8.47
2023-02-04T00:29:06.219Z,8.44
2023-02-04T00:30:06.176Z,8.52
2023-02-04T00:31:06.198Z,8.50
2023-02-04T00:32:06.282Z,8.50
2023-02-04T00:33:06.165Z,8.48
2023-02-04T00:34:06.173Z,8.45
2023-02-04T00:35:06.156Z,8.45
2023-02-04T00:36:06.138Z,8.52
2023-02-04T00:37:06.106Z,8.47
2023-02-04T00:38:06.117Z,8.48
2023-02-04T00:39:06.078Z,8.50
2023-02-04T00:40:06.084Z,8.50
2023-02-04T00:41:06.070Z,8.50
2023-02-04T00:42:06.053Z,8.50
2023-02-04T00:43:06.044Z,8.38
2023-02-04T00:44:06.059Z,8.52
2023-02-04T00:45:06.034Z,8.47
2023-02-04T00:46:06.029Z,8.48
2023-02-04T00:47:06.002Z,8.47
2023-02-04T00:48:06.020Z,8.38
2023-02-04T00:49:05.964Z,8.41
2023-02-04T00:50:06.018Z,8.50
2023-02-04T00:51:05.960Z,8.52
2023-02-04T00:52:05.960Z,8.47
2023-02-04T00:53:05.955Z,8.55
2023-02-04T00:54:05.922Z,8.47
2023-02-04T00:55:05.910Z,8.48
2023-02-04T00:56:05.902Z,8.45
2023-02-04T00:57:05.910Z,8.48
2023-02-04T00:58:05.897Z,8.45
2023-02-04T00:59:05.862Z,8.50
2023-02-04T01:00:05.865Z,8.48
2023-02-04T01:01:05.928Z,8.45
2023-02-04T01:02:05.850Z,8.40
2023-02-04T01:03:05.961Z,8.40
2023-02-04T01:04:05.823Z,8.41
2023-02-04T01:05:05.839Z,8.41
2023-02-04T01:06:05.820Z,8.37
2023-02-04T01:07:05.827Z,8.40
2023-02-04T01:08:05.798Z,8.41
2023-02-04T01:09:05.828Z,8.34
2023-02-04T01:10:05.775Z,8.30
2023-02-04T01:11:05.757Z,8.34
2023-02-04T01:12:05.767Z,8.38
2023-02-04T01:13:05.732Z,8.40
2023-02-04T01:14:05.704Z,8.37
2023-02-04T01:15:05.719Z,8.37
2023-02-04T01:16:05.737Z,8.36
2023-02-04T01:17:05.702Z,8.41
2023-02-04T01:18:05.658Z,8.29
2023-02-04T01:19:05.662Z,8.28
2023-02-04T01:20:05.662Z,8.36
2023-02-04T01:21:05.637Z,8.40
2023-02-04T01:22:05.634Z,8.29
2023-02-04T01:23:05.622Z,8.34
2023-02-04T01:24:05.596Z,8.29
2023-02-04T01:25:05.608Z,8.30
2023-02-04T01:26:05.615Z,8.36
2023-02-04T01:27:05.566Z,8.36
2023-02-04T01:28:05.595Z,8.33
2023-02-04T01:29:05.565Z,8.34
2023-02-04T01:30:05.541Z,8.28
2023-02-04T01:31:05.634Z,8.30
2023-02-04T01:32:05.561Z,8.23
2023-02-04T01:33:05.503Z,8.30
2023-02-04T01:34:05.518Z,8.26
2023-02-04T01:35:05.482Z,8.29
2023-02-04T01:36:05.473Z,8.25
2023-02-04T01:37:05.463Z,8.26
2023-02-04T01:38:05.459Z,8.29
2023-02-04T01:39:05.472Z,8.23
2023-02-04T01:40:05.428Z,8.28
2023-02-04T01:41:05.427Z,8.22
2023-02-04T01:42:05.404Z,8.22
2023-02-04T01:43:05.393Z,8.28
2023-02-04T01:44:05.374Z,8.20
2023-02-04T01:45:05.420Z,8.26
2023-02-04T01:46:05.451Z,8.25
2023-02-04T01:47:05.357Z,8.26
2023-02-04T01:48:05.350Z,8.23
2023-02-04T01:49:05.342Z,8.23
2023-02-04T01:50:05.326Z,8.20
2023-02-04T01:51:05.306Z,8.29
2023-02-04T01:52:05.304Z,8.25
2023-02-04T01:53:05.278Z,8.19
2023-02-04T01:54:05.305Z,8.15
2023-02-04T01:55:05.251Z,8.25
2023-02-04T01:56:05.242Z,8.16
2023-02-04T01:57:05.276Z,8.08
2023-02-04T01:58:05.224Z,8.10
2023-02-04T01:59:05.257Z,8.15
2023-02-04T02:00:05.210Z,8.10
2023-02-04T02:01:05.237Z,8.12
2023-02-04T02:02:05.203Z,8.22
2023-02-04T02:03:05.163Z,8.23
2023-02-04T02:04:05.160Z,8.19
2023-02-04T02:05:05.157Z,8.12
2023-02-04T02:06:05.150Z,8.18
2023-02-04T02:07:05.141Z,8.19
2023-02-04T02:08:05.104Z,8.15
2023-02-04T02:09:05.133Z,8.19
2023-02-04T02:10:05.097Z,8.16
2023-02-04T02:11:05.102Z,8.08
2023-02-04T02:12:05.088Z,8.01
2023-02-04T02:13:05.057Z,8.00
2023-02-04T02:14:05.060Z,8.02
2023-02-04T02:15:05.051Z,8.10
2023-02-04T02:16:05.024Z,8.04
2023-02-04T02:17:05.017Z,7.98
2023-02-04T02:18:05.000Z,7.98
2023-02-04T02:19:05.019Z,8.08
2023-02-04T02:20:04.984Z,8.08
2023-02-04T02:21:04.987Z,8.01
2023-02-04T02:22:04.969Z,8.01
2023-02-04T02:23:04.962Z,8.02
2023-02-04T02:24:04.941Z,7.93
2023-02-04T02:25:05.014Z,8.00
2023-02-04T02:26:04.948Z,7.97
2023-02-04T02:27:04.933Z,7.97
2023-02-04T02:28:04.918Z,8.02
2023-02-04T02:29:04.882Z,7.97
2023-02-04T02:30:04.868Z,7.87
2023-02-04T02:31:04.951Z,7.90
2023-02-04T02:32:04.849Z,7.90
2023-02-04T02:33:04.836Z,7.87
2023-02-04T02:34:04.847Z,7.97
2023-02-04T02:35:04.815Z,8.00
2023-02-04T02:36:04.807Z,7.93
2023-02-04T02:37:04.786Z,8.04
2023-02-04T02:38:04.775Z,7.89
2023-02-04T02:39:04.786Z,7.87
2023-02-04T02:40:04.788Z,7.90
2023-02-04T02:41:04.758Z,7.89
2023-02-04T02:42:04.747Z,7.87
2023-02-04T02:43:04.726Z,7.90
2023-02-04T02:44:04.725Z,7.90
2023-02-04T02:45:04.700Z,7.92
2023-02-04T02:46:04.754Z,7.95
2023-02-04T02:47:04.702Z,7.95
2023-02-04T02:48:04.669Z,8.00
2023-02-04T02:49:04.660Z,8.00
2023-02-04T02:50:04.643Z,7.89
2023-02-04T02:51:04.635Z,7.72
2023-02-04T02:52:04.640Z,7.79
2023-02-04T02:53:04.625Z,7.77
2023-02-04T02:54:04.628Z,7.79
2023-02-04T02:55:04.609Z,7.71
2023-02-04T02:56:04.620Z,7.77
2023-02-04T02:57:04.564Z,7.77
2023-02-04T02:58:04.564Z,7.87
2023-02-04T02:59:04.554Z,7.80
2023-02-04T03:00:04.546Z,7.82
2023-02-04T03:01:04.580Z,7.75
2023-02-04T03:02:04.529Z,7.80
2023-02-04T03:03:04.526Z,7.67
2023-02-04T03:04:04.485Z,7.75
2023-02-04T03:05:04.487Z,7.67
2023-02-04T03:06:04.474Z,7.75
2023-02-04T03:07:04.452Z,7.77
2023-02-04T03:08:04.465Z,7.75
2023-02-04T03:09:04.474Z,7.79
2023-02-04T03:10:04.433Z,7.80
2023-02-04T03:11:04.426Z,7.75
2023-02-04T03:12:04.406Z,7.74
2023-02-04T03:13:04.404Z,7.68
2023-02-04T03:14:04.398Z,7.69
2023-02-04T03:15:04.410Z,7.64
2023-02-04T03:16:04.440Z,7.69
2023-02-04T03:17:04.383Z,7.67
2023-02-04T03:18:04.338Z,7.63
2023-02-04T03:19:04.378Z,7.63
2023-02-04T03:20:04.316Z,7.67
2023-02-04T03:21:04.301Z,7.64
2023-02-04T03:22:04.297Z,7.63
2023-02-04T03:23:04.292Z,7.64
2023-02-04T03:24:04.340Z,7.63
2023-02-04T03:25:04.292Z,7.55
2023-02-04T03:26:04.268Z,7.58
2023-02-04T03:27:04.245Z,7.52
2023-02-04T03:28:04.267Z,7.60
2023-02-04T03:29:04.217Z,7.63
2023-02-04T03:30:04.224Z,7.61
2023-02-04T03:31:04.303Z,7.68
2023-02-04T03:32:04.207Z,7.60
2023-02-04T03:33:04.187Z,7.67
2023-02-04T03:34:04.180Z,7.55
2023-02-04T03:35:04.160Z,7.53
2023-02-04T03:36:04.146Z,7.58
2023-02-04T03:37:04.136Z,7.57
2023-02-04T03:38:04.134Z,7.61
2023-02-04T03:39:04.137Z,7.60
2023-02-04T03:40:04.106Z,7.57
2023-02-04T03:41:04.113Z,7.52
2023-02-04T03:42:04.107Z,7.48
2023-02-04T03:43:04.066Z,7.50
2023-02-04T03:44:04.062Z,7.58
2023-02-04T03:45:04.093Z,7.48
2023-02-04T03:46:04.112Z,7.64
2023-02-04T03:47:04.042Z,7.52
2023-02-04T03:48:04.011Z,7.60
2023-02-04T03:49:04.018Z,7.50
2023-02-04T03:50:04.024Z,7.55
2023-02-04T03:51:03.980Z,7.50
2023-02-04T03:52:03.985Z,7.55
2023-02-04T03:53:03.976Z,7.60
2023-02-04T03:54:03.954Z,7.63
2023-02-04T03:55:03.939Z,7.64
2023-02-04T03:56:03.920Z,7.67
2023-02-04T03:57:03.933Z,7.67
2023-02-04T03:58:03.910Z,7.63
2023-02-04T03:59:03.915Z,7.60
2023-02-04T04:00:03.881Z,7.74
2023-02-04T04:01:03.893Z,7.63
2023-02-04T04:02:03.883Z,7.58
2023-02-04T04:03:03.858Z,7.64
2023-02-04T04:04:03.867Z,7.69
2023-02-04T04:05:03.851Z,7.71
2023-02-04T04:06:03.857Z,7.68
2023-02-04T04:07:03.810Z,7.52
2023-02-04T04:08:03.809Z,7.67
2023-02-04T04:09:03.792Z,7.69
2023-02-04T04:10:03.779Z,7.64
2023-02-04T04:11:03.804Z,7.68
2023-02-04T04:12:03.756Z,7.52
2023-02-04T04:13:03.744Z,7.52
2023-02-04T04:14:03.736Z,7.55
2023-02-04T04:15:03.757Z,7.53
2023-02-04T04:16:03.805Z,7.55
2023-02-04T04:17:03.706Z,7.53
2023-02-04T04:18:03.719Z,7.50
2023-02-04T04:19:03.694Z,7.61
2023-02-04T04:20:03.671Z,7.60
2023-02-04T04:21:03.670Z,7.50
2023-02-04T04:22:03.641Z,7.55
2023-02-04T04:23:03.639Z,7.55
2023-02-04T04:24:03.630Z,7.46
2023-02-04T04:25:03.613Z,7.55
2023-02-04T04:26:03.623Z,7.53
2023-02-04T04:27:03.602Z,7.53
2023-02-04T04:28:03.738Z,7.55
2023-02-04T04:29:03.598Z,7.55
2023-02-04T04:30:03.566Z,7.55
2023-02-04T04:31:03.720Z,7.52
2023-02-04T04:32:03.634Z,7.50
2023-02-04T04:33:03.529Z,7.57
2023-02-04T04:34:03.525Z,7.52
2023-02-04T04:35:03.520Z,7.55
2023-02-04T04:36:03.481Z,7.49
2023-02-04T04:37:03.500Z,7.46
2023-02-04T04:38:03.462Z,7.57
2023-02-04T04:39:03.466Z,7.43
2023-02-04T04:40:03.453Z,7.43
2023-02-04T04:41:03.479Z,7.43
2023-02-04T04:42:03.437Z,7.39
2023-02-04T04:43:03.406Z,7.31
2023-02-04T04:44:03.399Z,7.42
2023-02-04T04:45:03.442Z,7.35
2023-02-04T04:46:03.381Z,7.32
2023-02-04T04:47:03.389Z,7.37
2023-02-04T04:48:03.349Z,7.42
2023-02-04T04:49:03.378Z,7.30
2023-02-04T04:50:03.350Z,7.31
2023-02-04T04:51:03.371Z,7.39
2023-02-04T04:52:03.338Z,7.39
2023-02-04T04:53:03.291Z,7.40
2023-02-04T04:54:03.288Z,7.53
2023-02-04T04:55:03.268Z,7.46
2023-02-04T04:56:03.264Z,7.50
2023-02-04T04:57:03.280Z,7.45
2023-02-04T04:58:03.244Z,7.37
2023-02-04T04:59:03.248Z,7.39
2023-02-04T05:00:03.216Z,7.43
2023-02-04T05:01:03.217Z,7.39
2023-02-04T05:02:03.225Z,7.40
2023-02-04T05:03:03.222Z,7.35
2023-02-04T05:04:03.177Z,7.34
2023-02-04T05:05:03.216Z,7.35
2023-02-04T05:06:03.743Z,7.34
2023-02-04T05:07:03.151Z,7.39
2023-02-04T05:08:03.176Z,7.28
2023-02-04T05:09:03.132Z,7.27
2023-02-04T05:10:03.114Z,7.23
2023-02-04T05:11:03.126Z,7.27
2023-02-04T05:12:03.122Z,7.27
2023-02-04T05:13:03.110Z,7.32
2023-02-04T05:14:03.105Z,7.35
2023-02-04T05:15:03.067Z,7.20
2023-02-04T05:16:03.136Z,7.25
2023-02-04T05:17:03.104Z,7.27
2023-02-04T05:18:03.044Z,7.31
2023-02-04T05:19:03.038Z,7.24
2023-02-04T05:20:03.023Z,7.27
2023-02-04T05:21:03.014Z,7.28
2023-02-04T05:22:03.037Z,7.27
2023-02-04T05:23:05.234Z,7.31
2023-02-04T05:24:02.981Z,7.21
2023-02-04T05:25:02.978Z,7.28
2023-02-04T05:26:02.976Z,7.35
2023-02-04T05:27:02.936Z,7.32
2023-02-04T05:28:03.004Z,7.27
2023-02-04T05:29:02.946Z,7.23
2023-02-04T05:30:02.935Z,7.23
2023-02-04T05:31:02.952Z,7.17
2023-02-04T05:32:02.976Z,7.20
2023-02-04T05:33:02.874Z,7.13
2023-02-04T05:34:02.880Z,7.25
2023-02-04T05:35:04.165Z,7.24
2023-02-04T05:36:02.835Z,7.28
2023-02-04T05:37:02.854Z,7.24
2023-02-04T05:38:02.882Z,7.24
2023-02-04T05:39:02.805Z,7.21
2023-02-04T05:40:02.803Z,7.21
2023-02-04T05:41:02.779Z,7.31
2023-02-04T05:42:02.807Z,7.24
2023-02-04T05:43:02.758Z,7.30
2023-02-04T05:44:02.774Z,7.24
2023-02-04T05:45:02.735Z,7.24
2023-02-04T05:46:02.802Z,7.16
2023-02-04T05:47:02.725Z,7.16
2023-02-04T05:48:02.768Z,7.16
2023-02-04T05:49:02.692Z,7.15
2023-02-04T05:50:02.682Z,7.17
2023-02-04T05:51:02.685Z,7.28
2023-02-04T05:52:02.663Z,7.30
2023-02-04T05:53:02.670Z,7.23
2023-02-04T05:54:02.656Z,7.21
2023-02-04T05:55:02.631Z,7.17
2023-02-04T05:56:02.616Z,7.25
2023-02-04T05:57:02.623Z,7.34
2023-02-04T05:58:02.614Z,7.31
2023-02-04T05:59:02.592Z,7.25
2023-02-04T06:00:02.597Z,7.25
2023-02-04T06:01:02.564Z,7.27
2023-02-04T06:02:02.558Z,7.21
2023-02-04T06:03:02.639Z,7.21
2023-02-04T06:04:02.551Z,7.30
2023-02-04T06:05:02.527Z,7.35
2023-02-04T06:06:02.531Z,7.35
2023-02-04T06:07:02.506Z,7.43
2023-02-04T06:08:02.530Z,7.39
2023-02-04T06:09:02.477Z,7.34
2023-02-04T06:10:02.510Z,7.43
2023-02-04T06:11:02.448Z,7.27
2023-02-04T06:12:02.459Z,7.23
2023-02-04T06:13:02.430Z,7.17
2023-02-04T06:14:02.473Z,7.24
2023-02-04T06:15:02.426Z,7.35
2023-02-04T06:16:02.401Z,7.32
2023-02-04T06:17:02.391Z,7.32
2023-02-04T06:18:02.402Z,7.31
2023-02-04T06:19:02.373Z,7.25
2023-02-04T06:20:02.403Z,7.32
2023-02-04T06:21:02.349Z,7.25
2023-02-04T06:22:02.353Z,7.24
2023-02-04T06:23:02.329Z,7.23
2023-02-04T06:24:03.522Z,7.16
2023-02-04T06:25:02.311Z,7.27
2023-02-04T06:26:02.351Z,7.24
2023-02-04T06:27:02.280Z,7.24
2023-02-04T06:28:02.291Z,7.17
2023-02-04T06:29:02.260Z,7.17
2023-02-04T06:30:02.256Z,7.27
2023-02-04T06:31:02.404Z,7.24
2023-02-04T06:32:02.337Z,7.23
2023-02-04T06:33:02.233Z,7.23
2023-02-04T06:34:02.203Z,7.24
2023-02-04T06:35:02.195Z,7.34
2023-02-04T06:36:02.198Z,7.25
2023-02-04T06:37:02.169Z,7.34
2023-02-04T06:38:02.199Z,7.35
2023-02-04T06:39:02.155Z,7.34
2023-02-04T06:40:02.156Z,7.21
2023-02-04T06:41:02.137Z,7.32
2023-02-04T06:42:02.253Z,7.35
2023-02-04T06:43:04.281Z,7.32
2023-02-04T06:44:02.097Z,7.27
2023-02-04T06:45:02.094Z,7.21
2023-02-04T06:46:02.098Z,7.16
2023-02-04T06:47:02.080Z,7.24
2023-02-04T06:48:02.069Z,7.23
2023-02-04T06:49:02.066Z,7.28
2023-02-04T06:50:02.051Z,7.23
2023-02-04T06:51:02.044Z,7.16
2023-02-04T06:52:02.013Z,7.21
2023-02-04T06:53:02.010Z,7.24
2023-02-04T06:54:02.017Z,7.13
2023-02-04T06:55:02.006Z,7.24
2023-02-04T06:56:01.970Z,7.16
2023-02-04T06:57:01.972Z,7.25
2023-02-04T06:58:01.959Z,7.20
2023-02-04T06:59:03.371Z,7.10
2023-02-04T07:00:01.966Z,7.16
2023-02-04T07:01:01.989Z,7.20
2023-02-04T07:02:01.894Z,7.25
2023-02-04T07:03:01.920Z,7.15
2023-02-04T07:04:01.878Z,7.31
2023-02-04T07:05:01.873Z,7.17
2023-02-04T07:06:01.892Z,7.21
2023-02-04T07:07:01.864Z,7.21
2023-02-04T07:08:01.849Z,7.23
2023-02-04T07:09:01.867Z,7.25
2023-02-04T07:10:01.917Z,7.24
2023-02-04T07:11:01.810Z,7.32
2023-02-04T07:12:01.826Z,7.32
2023-02-04T07:13:01.801Z,7.37
2023-02-04T07:14:01.786Z,7.35
2023-02-04T07:15:01.775Z,7.30
2023-02-04T07:16:01.810Z,7.23
2023-02-04T07:17:01.762Z,7.28
2023-02-04T07:18:01.746Z,7.21
2023-02-04T07:19:01.733Z,7.24
2023-02-04T07:20:01.729Z,7.25
2023-02-04T07:21:01.731Z,7.21
2023-02-04T07:22:01.692Z,7.24
2023-02-04T07:23:01.687Z,7.17
2023-02-04T07:24:01.664Z,7.20
2023-02-04T07:25:01.658Z,7.24
2023-02-04T07:26:01.653Z,7.24
2023-02-04T07:27:02.692Z,7.25
2023-02-04T07:28:01.657Z,7.28
2023-02-04T07:29:01.608Z,7.31
2023-02-04T07:30:01.646Z,7.24
2023-02-04T07:31:01.706Z,7.24
2023-02-04T07:32:01.823Z,7.24
2023-02-04T07:33:01.585Z,7.21
2023-02-04T07:34:01.583Z,7.25
2023-02-04T07:35:01.570Z,7.16
2023-02-04T07:36:01.562Z,7.16
2023-02-04T07:37:01.619Z,7.30
2023-02-04T07:38:01.511Z,7.23
2023-02-04T07:39:01.556Z,7.23
2023-02-04T07:40:01.495Z,7.40
2023-02-04T07:41:01.477Z,7.34
2023-02-04T07:42:01.469Z,7.34
2023-02-04T07:43:01.457Z,7.32
2023-02-04T07:44:01.452Z,7.43
2023-02-04T07:45:01.466Z,7.40
2023-02-04T07:46:01.472Z,7.39
2023-02-04T07:47:01.418Z,7.43
2023-02-04T07:48:01.402Z,7.42
2023-02-04T07:49:01.400Z,7.34
2023-02-04T07:50:01.380Z,7.43
2023-02-04T07:51:01.386Z,7.40
2023-02-04T07:52:01.361Z,7.50
2023-02-04T07:53:01.337Z,7.45
2023-02-04T07:54:01.336Z,7.53
2023-02-04T07:55:01.317Z,7.46
2023-02-04T07:56:01.322Z,7.50
2023-02-04T07:57:01.308Z,7.55
2023-02-04T07:58:01.283Z,7.53
2023-02-04T07:59:01.300Z,7.53
2023-02-04T08:00:01.278Z,7.63
2023-02-04T08:01:01.258Z,7.61
2023-02-04T08:02:01.276Z,7.58
2023-02-04T08:03:01.288Z,7.68
2023-02-04T08:04:01.222Z,7.68
2023-02-04T08:05:01.229Z,7.63
2023-02-04T08:06:01.224Z,7.75
2023-02-04T08:07:01.191Z,7.69
2023-02-04T08:08:01.179Z,7.68
2023-02-04T08:09:01.180Z,7.69
2023-02-04T08:10:01.175Z,7.63
2023-02-04T08:11:01.136Z,7.67
2023-02-04T08:12:01.135Z,7.63
2023-02-04T08:13:01.118Z,7.63
2023-02-04T08:14:01.128Z,7.49
2023-02-04T08:15:01.156Z,7.58
2023-02-04T08:16:01.185Z,7.55
2023-02-04T08:17:01.073Z,7.52
2023-02-04T08:18:01.083Z,7.53
2023-02-04T08:19:01.054Z,7.48
2023-02-04T08:20:01.040Z,7.57
2023-02-04T08:21:01.678Z,7.55
2023-02-04T08:22:01.021Z,7.53
2023-02-04T08:23:02.142Z,7.52
2023-02-04T08:24:01.638Z,7.48
2023-02-04T08:25:01.004Z,7.57
2023-02-04T08:26:01.008Z,7.55
2023-02-04T08:27:00.983Z,7.46
2023-02-04T08:28:00.989Z,7.55
2023-02-04T08:29:00.940Z,7.46
2023-02-04T08:30:00.929Z,7.55
2023-02-04T08:31:01.021Z,7.48
2023-02-04T08:32:01.679Z,7.57
2023-02-04T08:33:00.906Z,7.60
2023-02-04T08:34:00.915Z,7.52
2023-02-04T08:35:00.882Z,7.64
2023-02-04T08:36:00.896Z,7.67
2023-02-04T08:37:00.870Z,7.52
2023-02-04T08:38:00.884Z,7.58
2023-02-04T08:39:00.830Z,7.67
2023-02-04T08:40:00.836Z,7.69
2023-02-04T08:41:00.822Z,7.64
2023-02-04T08:42:00.822Z,7.71
2023-02-04T08:43:00.788Z,7.64
2023-02-04T08:44:00.798Z,7.69
2023-02-04T08:45:00.778Z,7.64
2023-02-04T08:46:00.768Z,7.77
2023-02-04T08:47:00.773Z,7.67
2023-02-04T08:48:00.743Z,7.75
2023-02-04T08:49:00.745Z,7.75
2023-02-04T08:50:00.765Z,7.77
2023-02-04T08:51:00.722Z,7.89
2023-02-04T08:52:00.728Z,7.82
2023-02-04T08:53:00.715Z,7.67
2023-02-04T08:54:00.690Z,7.68
2023-02-04T08:55:00.680Z,7.64
2023-02-04T08:56:00.703Z,7.71
2023-02-04T08:57:00.660Z,7.77
2023-02-04T08:58:00.712Z,7.80
2023-02-04T08:59:00.660Z,7.90
2023-02-04T09:00:01.155Z,7.87
2023-02-04T09:01:01.197Z,7.82
2023-02-04T09:02:00.780Z,7.80
2023-02-04T09:03:02.164Z,7.83
2023-02-04T09:04:01.161Z,7.85
2023-02-04T09:05:00.593Z,7.82
2023-02-04T09:06:00.600Z,7.85
2023-02-04T09:07:00.603Z,7.83
2023-02-04T09:08:00.590Z,8.04
2023-02-04T09:09:00.540Z,8.00
2023-02-04T09:10:00.616Z,8.01
2023-02-04T09:11:00.534Z,8.08
2023-02-04T09:12:00.510Z,8.02
2023-02-04T09:13:00.494Z,7.98
2023-02-04T09:14:00.522Z,8.08
2023-02-04T09:15:00.490Z,8.04
2023-02-04T09:16:00.635Z,8.08
2023-02-04T09:17:00.446Z,8.07
2023-02-04T09:18:00.452Z,8.15
2023-02-04T09:19:00.427Z,8.23
2023-02-04T09:20:00.425Z,8.12
2023-02-04T09:21:00.432Z,8.08
2023-02-04T09:22:00.430Z,8.16
2023-02-04T09:23:00.413Z,8.29
2023-02-04T09:24:00.401Z,8.26
2023-02-04T09:25:00.371Z,8.23
2023-02-04T09:26:00.361Z,8.08
2023-02-04T09:27:00.351Z,8.16
2023-02-04T09:28:00.429Z,8.18
2023-02-04T09:29:00.331Z,8.10
2023-02-04T09:30:00.320Z,8.12
2023-02-04T09:31:00.432Z,8.26
2023-02-04T09:32:00.431Z,8.34
2023-02-04T09:33:00.277Z,8.37
2023-02-04T09:34:00.337Z,8.38
2023-02-04T09:35:00.265Z,8.26
2023-02-04T09:36:00.269Z,8.22
2023-02-04T09:37:00.259Z,8.29
2023-02-04T09:38:00.243Z,8.41
2023-02-04T09:39:00.235Z,8.41
2023-02-04T09:40:00.224Z,8.36
2023-02-04T09:41:00.196Z,8.36
2023-02-04T09:42:00.215Z,8.36
2023-02-04T09:43:00.180Z,8.44
2023-02-04T09:44:00.188Z,8.52
2023-02-04T09:45:00.181Z,8.47
2023-02-04T09:46:00.257Z,8.48
2023-02-04T09:47:00.131Z,8.52
2023-02-04T09:48:00.132Z,8.47
2023-02-04T09:49:00.142Z,8.45
2023-02-04T09:50:00.146Z,8.55
2023-02-04T09:51:00.087Z,8.53
2023-02-04T09:52:00.125Z,8.56
2023-02-04T09:53:00.057Z,8.65
2023-02-04T09:54:00.098Z,8.65
2023-02-04T09:55:00.044Z,8.65
2023-02-04T09:56:00.029Z,8.79
2023-02-04T09:57:00.012Z,8.71
2023-02-04T09:58:00.005Z,8.79
2023-02-04T09:59:00.069Z,8.76
2023-02-04T09:59:59.996Z,8.79
2023-02-04T10:01:00.022Z,8.59
2023-02-04T10:01:59.944Z,8.59
2023-02-04T10:02:59.950Z,8.73
2023-02-04T10:03:59.993Z,8.71
2023-02-04T10:04:59.932Z,8.77
2023-02-04T10:05:59.922Z,8.79
2023-02-04T10:06:59.903Z,8.79
2023-02-04T10:07:59.874Z,8.73
2023-02-04T10:08:59.867Z,8.68
2023-02-04T10:09:59.901Z,8.74
2023-02-04T10:10:59.877Z,8.86
2023-02-04T10:11:59.850Z,8.95
2023-02-04T10:12:59.824Z,8.92
2023-02-04T10:13:59.811Z,8.74
2023-02-04T10:14:59.807Z,8.74
2023-02-04T10:15:59.805Z,8.77
2023-02-04T10:16:59.881Z,8.77
2023-02-04T10:17:59.772Z,8.84
2023-02-04T10:18:59.759Z,8.91
2023-02-04T10:19:59.744Z,8.94
2023-02-04T10:20:59.732Z,8.89
2023-02-04T10:21:59.740Z,8.77
2023-02-04T10:22:59.747Z,8.96
2023-02-04T10:23:59.697Z,8.96
2023-02-04T10:24:59.689Z,8.95
2023-02-04T10:25:59.738Z,8.99
2023-02-04T10:26:59.674Z,9.10
2023-02-04T10:27:59.717Z,9.11
2023-02-04T10:28:59.765Z,9.08
2023-02-04T10:29:59.708Z,9.17
2023-02-04T10:30:59.756Z,9.23
2023-02-04T10:31:59.725Z,9.24
2023-02-04T10:32:59.608Z,9.31
2023-02-04T10:33:59.714Z,9.26
2023-02-04T10:34:59.607Z,9.31
2023-02-04T10:35:59.596Z,9.21
2023-02-04T10:36:59.584Z,9.21
2023-02-04T10:37:59.551Z,9.17
2023-02-04T10:38:59.559Z,9.14
2023-02-04T10:39:59.525Z,9.24
2023-02-04T10:40:59.549Z,9.18
2023-02-04T10:41:59.566Z,9.29
2023-02-04T10:42:59.499Z,9.31
2023-02-04T10:43:59.497Z,9.28
2023-02-04T10:44:59.483Z,9.23
2023-02-04T10:45:59.528Z,9.28
2023-02-04T10:46:59.500Z,9.24
2023-02-04T10:47:59.444Z,9.26
2023-02-04T10:48:59.438Z,9.31
2023-02-04T10:49:59.419Z,9.32
2023-02-04T10:50:59.408Z,9.28
2023-02-04T10:51:59.401Z,9.29
2023-02-04T10:52:59.405Z,9.26
2023-02-04T10:53:59.403Z,9.33
2023-02-04T10:54:59.371Z,9.32
2023-02-04T10:55:59.372Z,9.26
2023-02-04T10:56:59.345Z,9.29
2023-02-04T10:57:59.713Z,9.31
2023-02-04T10:58:59.326Z,9.26
2023-02-04T10:59:59.338Z,9.26
2023-02-04T11:00:59.360Z,9.24
2023-02-04T11:01:59.309Z,9.29
2023-02-04T11:02:59.358Z,9.26
2023-02-04T11:03:59.293Z,9.21
2023-02-04T11:04:59.275Z,9.21
2023-02-04T11:05:59.281Z,9.28
2023-02-04T11:06:59.245Z,9.23
2023-02-04T11:07:59.230Z,9.23
2023-02-04T11:08:59.217Z,9.20
2023-02-04T11:09:59.211Z,9.11
2023-02-04T11:10:59.211Z,9.14
2023-02-04T11:11:59.199Z,9.14
2023-02-04T11:12:59.192Z,9.11
2023-02-04T11:13:59.178Z,9.20
2023-02-04T11:14:59.172Z,9.23
2023-02-04T11:15:59.185Z,9.24
2023-02-04T11:16:59.169Z,9.20
2023-02-04T11:17:59.133Z,9.23
2023-02-04T11:18:59.119Z,9.26
2023-02-04T11:19:59.100Z,9.08
2023-02-04T11:20:59.106Z,9.13
2023-02-04T11:21:59.075Z,9.17
2023-02-04T11:22:59.086Z,9.24
2023-02-04T11:23:59.074Z,9.24
2023-02-04T11:24:59.067Z,9.24
2023-02-04T11:25:59.033Z,9.24
2023-02-04T11:26:59.042Z,9.21
2023-02-04T11:27:59.051Z,9.28
2023-02-04T11:28:58.998Z,9.14
2023-02-04T11:29:59.045Z,9.08
2023-02-04T11:30:59.148Z,9.05
2023-02-04T11:31:59.051Z,8.91
2023-02-04T11:32:58.972Z,9.04
2023-02-04T11:33:58.947Z,8.91
2023-02-04T11:34:58.938Z,8.95
2023-02-04T11:35:58.921Z,9.02
2023-02-04T11:36:58.995Z,8.94
2023-02-04T11:37:58.906Z,9.15
2023-02-04T11:38:58.891Z,9.14
2023-02-04T11:39:58.890Z,9.20
2023-02-04T11:40:58.889Z,9.18
2023-02-04T11:41:58.853Z,9.26
2023-02-04T11:42:58.848Z,9.20
2023-02-04T11:43:58.833Z,9.26
2023-02-04T11:44:58.827Z,9.29
2023-02-04T11:45:58.872Z,9.29
2023-02-04T11:46:58.861Z,9.39
2023-02-04T11:47:58.794Z,9.33
2023-02-04T11:48:58.814Z,9.42
2023-02-04T11:49:58.780Z,9.33
2023-02-04T11:50:58.802Z,9.38
2023-02-04T11:51:58.738Z,9.43
2023-02-04T11:52:58.746Z,9.48
2023-02-04T11:53:58.725Z,9.40
2023-02-04T11:54:58.720Z,9.50
2023-02-04T11:55:58.718Z,9.43
2023-02-04T11:56:58.694Z,9.57
2023-02-04T11:57:58.676Z,9.58
2023-02-04T11:58:58.687Z,9.60
2023-02-04T11:59:58.659Z,9.60
2023-02-04T12:00:58.668Z,9.60
2023-02-04T12:01:58.672Z,9.57
2023-02-04T12:02:58.660Z,9.58
2023-02-04T12:03:58.693Z,9.48
2023-02-04T12:04:58.623Z,9.57
2023-02-04T12:05:58.615Z,9.57
2023-02-04T12:06:58.589Z,9.53
2023-02-04T12:07:58.579Z,9.46
2023-02-04T12:08:58.567Z,9.56
2023-02-04T12:09:58.553Z,9.50
2023-02-04T12:10:58.597Z,9.48
2023-02-04T12:11:58.529Z,9.57
2023-02-04T12:12:58.512Z,9.57
2023-02-04T12:13:58.509Z,9.51
2023-02-04T12:14:58.495Z,9.56
2023-02-04T12:15:58.522Z,9.60
2023-02-04T12:16:58.495Z,9.68
2023-02-04T12:17:58.497Z,9.64
2023-02-04T12:18:58.467Z,9.60
2023-02-04T12:19:58.443Z,9.64
2023-02-04T12:20:58.440Z,9.79
2023-02-04T12:21:58.421Z,9.65
2023-02-04T12:22:58.440Z,9.48
2023-02-04T12:23:58.433Z,9.60
2023-02-04T12:24:58.417Z,9.58
2023-02-04T12:25:58.383Z,9.60
2023-02-04T12:26:58.382Z,9.46
2023-02-04T12:27:58.403Z,9.53
2023-02-04T12:28:58.374Z,9.36
2023-02-04T12:29:58.324Z,9.39
2023-02-04T12:30:58.451Z,9.46
2023-02-04T12:31:58.353Z,9.48
2023-02-04T12:32:58.303Z,9.50
2023-02-04T12:33:58.322Z,9.58
2023-02-04T12:34:58.311Z,9.40
2023-02-04T12:35:58.274Z,9.36
2023-02-04T12:36:58.259Z,9.42
2023-02-04T12:37:58.243Z,9.56
2023-02-04T12:38:58.250Z,9.58
2023-02-04T12:39:58.219Z,9.57
2023-02-04T12:40:58.283Z,9.74
2023-02-04T12:41:58.238Z,9.72
2023-02-04T12:42:58.188Z,9.66
2023-02-04T12:43:58.174Z,9.71
2023-02-04T12:44:58.180Z,9.69
2023-02-04T12:45:58.146Z,9.76
2023-02-04T12:46:58.246Z,9.78
2023-02-04T12:47:58.167Z,9.87
2023-02-04T12:48:58.125Z,9.81
2023-02-04T12:49:58.123Z,9.81
2023-02-04T12:50:58.115Z,9.84
2023-02-04T12:51:58.113Z,9.83
2023-02-04T12:52:58.103Z,9.87
2023-02-04T12:53:58.073Z,9.91
2023-02-04T12:54:58.053Z,9.89
2023-02-04T12:55:58.040Z,9.86
2023-02-04T12:56:58.072Z,9.87
2023-02-04T12:57:58.031Z,9.86
2023-02-04T12:58:58.037Z,9.87
2023-02-04T12:59:57.998Z,9.81
2023-02-04T13:00:58.046Z,9.79
2023-02-04T13:01:58.077Z,9.84
2023-02-04T13:02:57.975Z,9.97
2023-02-04T13:03:57.986Z,9.86
2023-02-04T13:04:57.972Z,9.96
2023-02-04T13:05:57.969Z,9.86
2023-02-04T13:06:57.926Z,9.93
2023-02-04T13:07:57.907Z,9.90
2023-02-04T13:08:57.897Z,9.99
2023-02-04T13:09:57.893Z,9.93
2023-02-04T13:10:57.915Z,9.90
2023-02-04T13:11:57.886Z,9.90
2023-02-04T13:12:57.865Z,10.01
2023-02-04T13:13:57.882Z,9.91
2023-02-04T13:14:57.839Z,9.93
2023-02-04T13:15:57.843Z,9.96
2023-02-04T13:16:57.832Z,9.97
2023-02-04T13:17:57.798Z,9.97